sensor_id;sensor_type;location;lat;lon;timestamp;pressure;altitude;pressure_sealevel;temperature;humidity
30081;BME280;16902;50.816;12.828;2022-11-20T00:02:31;97322.41;;;-8.50;100.00
30081;BME280;16902;50.816;12.828;2022-11-20T00:07:33;97330.63;;;-8.64;100.00
30081;BME280;16902;50.816;12.828;2022-11-20T00:12:35;97333.06;;;-8.62;100.00
30081;BME280;16902;50.816;12.828;2022-11-20T00:17:36;97328.91;;;-8.63;100.00
30081;BME280;16902;50.816;12.828;2022-11-20T00:22:38;97329.00;;;-8.65;100.00
30081;BME280;16902;50.816;12.828;2022-11-20T00:27:40;97329.22;;;-8.52;100.00
30081;BME280;16902;50.816;12.828;2022-11-20T00:32:41;97326.91;;;-8.57;100.00
30081;BME280;16902;50.816;12.828;2022-11-20T00:37:43;97318.09;;;-8.65;100.00
30081;BME280;16902;50.816;12.828;2022-11-20T00:42:44;97328.69;;;-8.59;100.00
30081;BME280;16902;50.816;12.828;2022-11-20T00:47:46;97320.63;;;-8.65;100.00
30081;BME280;16902;50.816;12.828;2022-11-20T00:52:48;97332.16;;;-8.78;100.00
30081;BME280;16902;50.816;12.828;2022-11-20T00:57:49;97337.75;;;-8.91;100.00
30081;BME280;16902;50.816;12.828;2022-11-20T01:02:51;97335.31;;;-8.92;100.00
30081;BME280;16902;50.816;12.828;2022-11-20T01:07:52;97326.84;;;-8.91;100.00
30081;BME280;16902;50.816;12.828;2022-11-20T01:12:54;97317.94;;;-8.98;100.00
30081;BME280;16902;50.816;12.828;2022-11-20T01:18:14;97311.25;;;-8.99;100.00
30081;BME280;16902;50.816;12.828;2022-11-20T01:23:16;97306.56;;;-9.07;100.00
30081;BME280;16902;50.816;12.828;2022-11-20T01:28:18;97308.00;;;-9.01;100.00
30081;BME280;16902;50.816;12.828;2022-11-20T01:33:19;97291.22;;;-9.02;100.00
30081;BME280;16902;50.816;12.828;2022-11-20T01:38:21;97293.84;;;-9.04;100.00
30081;BME280;16902;50.816;12.828;2022-11-20T01:43:24;97282.59;;;-9.16;100.00
30081;BME280;16902;50.816;12.828;2022-11-20T01:48:32;97294.31;;;-9.15;100.00
30081;BME280;16902;50.816;12.828;2022-11-20T01:53:36;97299.13;;;-9.10;100.00
30081;BME280;16902;50.816;12.828;2022-11-20T01:58:42;97290.50;;;-9.23;100.00
30081;BME280;16902;50.816;12.828;2022-11-20T02:03:46;97287.03;;;-9.21;100.00
30081;BME280;16902;50.816;12.828;2022-11-20T02:08:48;97293.00;;;-9.23;100.00
30081;BME280;16902;50.816;12.828;2022-11-20T02:13:50;97286.81;;;-9.16;100.00
30081;BME280;16902;50.816;12.828;2022-11-20T02:18:53;97274.59;;;-9.07;100.00
30081;BME280;16902;50.816;12.828;2022-11-20T02:24:03;97273.31;;;-9.15;100.00
30081;BME280;16902;50.816;12.828;2022-11-20T02:29:05;97269.66;;;-9.27;100.00
30081;BME280;16902;50.816;12.828;2022-11-20T02:34:07;97267.69;;;-9.39;100.00
30081;BME280;16902;50.816;12.828;2022-11-20T02:39:11;97271.03;;;-9.39;100.00
30081;BME280;16902;50.816;12.828;2022-11-20T02:44:14;97269.19;;;-9.35;100.00
30081;BME280;16902;50.816;12.828;2022-11-20T02:49:16;97266.13;;;-9.42;100.00
30081;BME280;16902;50.816;12.828;2022-11-20T02:54:18;97267.38;;;-9.50;100.00
30081;BME280;16902;50.816;12.828;2022-11-20T02:59:20;97269.75;;;-9.47;100.00
30081;BME280;16902;50.816;12.828;2022-11-20T03:04:22;97259.53;;;-9.44;100.00
30081;BME280;16902;50.816;12.828;2022-11-20T03:09:24;97264.44;;;-9.41;100.00
30081;BME280;16902;50.816;12.828;2022-11-20T03:14:25;97260.22;;;-9.41;100.00
30081;BME280;16902;50.816;12.828;2022-11-20T03:19:28;97255.19;;;-9.60;100.00
30081;BME280;16902;50.816;12.828;2022-11-20T03:24:30;97257.97;;;-9.66;100.00
30081;BME280;16902;50.816;12.828;2022-11-20T03:29:31;97260.34;;;-9.63;100.00
30081;BME280;16902;50.816;12.828;2022-11-20T03:34:33;97256.53;;;-9.71;100.00
30081;BME280;16902;50.816;12.828;2022-11-20T03:39:35;97247.13;;;-9.68;100.00
30081;BME280;16902;50.816;12.828;2022-11-20T03:44:36;97235.97;;;-9.81;100.00
30081;BME280;16902;50.816;12.828;2022-11-20T03:49:38;97240.88;;;-9.78;100.00
30081;BME280;16902;50.816;12.828;2022-11-20T03:54:40;97232.28;;;-9.74;100.00
30081;BME280;16902;50.816;12.828;2022-11-20T03:59:41;97225.63;;;-9.75;100.00
30081;BME280;16902;50.816;12.828;2022-11-20T04:04:43;97221.34;;;-9.73;100.00
30081;BME280;16902;50.816;12.828;2022-11-20T04:09:44;97225.16;;;-9.83;100.00
30081;BME280;16902;50.816;12.828;2022-11-20T04:14:46;97226.94;;;-9.85;100.00
30081;BME280;16902;50.816;12.828;2022-11-20T04:19:48;97224.22;;;-9.80;100.00
30081;BME280;16902;50.816;12.828;2022-11-20T04:24:49;97222.91;;;-9.89;100.00
30081;BME280;16902;50.816;12.828;2022-11-20T04:29:51;97225.31;;;-9.86;100.00
30081;BME280;16902;50.816;12.828;2022-11-20T04:34:53;97228.84;;;-9.71;100.00
30081;BME280;16902;50.816;12.828;2022-11-20T04:39:54;97223.66;;;-9.68;100.00
30081;BME280;16902;50.816;12.828;2022-11-20T04:44:56;97229.56;;;-9.69;100.00
30081;BME280;16902;50.816;12.828;2022-11-20T04:49:58;97230.78;;;-9.78;100.00
30081;BME280;16902;50.816;12.828;2022-11-20T04:55:00;97224.66;;;-9.72;100.00
30081;BME280;16902;50.816;12.828;2022-11-20T05:00:02;97225.16;;;-9.83;100.00
30081;BME280;16902;50.816;12.828;2022-11-20T05:05:04;97220.25;;;-9.86;100.00
30081;BME280;16902;50.816;12.828;2022-11-20T05:10:06;97228.22;;;-9.95;100.00
30081;BME280;16902;50.816;12.828;2022-11-20T05:15:08;97218.97;;;-9.95;100.00
30081;BME280;16902;50.816;12.828;2022-11-20T05:20:11;97214.31;;;-10.04;100.00
30081;BME280;16902;50.816;12.828;2022-11-20T05:25:12;97212.13;;;-10.12;100.00
30081;BME280;16902;50.816;12.828;2022-11-20T05:30:14;97210.63;;;-10.16;100.00
30081;BME280;16902;50.816;12.828;2022-11-20T05:35:16;97203.16;;;-10.17;100.00
30081;BME280;16902;50.816;12.828;2022-11-20T05:40:17;97198.50;;;-10.25;100.00
30081;BME280;16902;50.816;12.828;2022-11-20T05:45:19;97197.59;;;-10.24;100.00
30081;BME280;16902;50.816;12.828;2022-11-20T05:50:21;97181.25;;;-10.34;100.00
30081;BME280;16902;50.816;12.828;2022-11-20T05:55:22;97188.84;;;-10.36;100.00
30081;BME280;16902;50.816;12.828;2022-11-20T06:00:24;97180.66;;;-10.39;100.00
30081;BME280;16902;50.816;12.828;2022-11-20T06:05:25;97184.44;;;-10.30;100.00
30081;BME280;16902;50.816;12.828;2022-11-20T06:10:27;97187.53;;;-10.24;100.00
30081;BME280;16902;50.816;12.828;2022-11-20T06:15:29;97185.13;;;-10.08;100.00
30081;BME280;16902;50.816;12.828;2022-11-20T06:20:30;97191.47;;;-9.99;100.00
30081;BME280;16902;50.816;12.828;2022-11-20T06:25:32;97194.50;;;-10.12;100.00
30081;BME280;16902;50.816;12.828;2022-11-20T06:30:34;97193.97;;;-10.18;100.00
30081;BME280;16902;50.816;12.828;2022-11-20T06:35:36;97192.75;;;-10.28;100.00
30081;BME280;16902;50.816;12.828;2022-11-20T06:40:40;97195.41;;;-10.31;100.00
30081;BME280;16902;50.816;12.828;2022-11-20T06:45:42;97191.13;;;-10.29;100.00
30081;BME280;16902;50.816;12.828;2022-11-20T06:50:44;97190.09;;;-10.25;100.00
30081;BME280;16902;50.816;12.828;2022-11-20T06:55:46;97184.25;;;-10.07;100.00
30081;BME280;16902;50.816;12.828;2022-11-20T07:00:48;97189.41;;;-9.91;100.00
30081;BME280;16902;50.816;12.828;2022-11-20T07:05:50;97201.13;;;-9.90;100.00
30081;BME280;16902;50.816;12.828;2022-11-20T07:10:52;97205.31;;;-9.72;100.00
30081;BME280;16902;50.816;12.828;2022-11-20T07:15:54;97204.66;;;-9.56;100.00
30081;BME280;16902;50.816;12.828;2022-11-20T07:20:55;97205.88;;;-9.46;100.00
30081;BME280;16902;50.816;12.828;2022-11-20T07:25:57;97197.59;;;-9.31;100.00
30081;BME280;16902;50.816;12.828;2022-11-20T07:30:59;97198.19;;;-9.26;100.00
30081;BME280;16902;50.816;12.828;2022-11-20T07:36:01;97192.97;;;-9.04;100.00
30081;BME280;16902;50.816;12.828;2022-11-20T07:41:03;97185.78;;;-8.60;100.00
30081;BME280;16902;50.816;12.828;2022-11-20T07:46:05;97186.84;;;-7.99;100.00
30081;BME280;16902;50.816;12.828;2022-11-20T07:51:07;97182.22;;;-7.43;100.00
30081;BME280;16902;50.816;12.828;2022-11-20T07:56:08;97184.06;;;-6.85;100.00
30081;BME280;16902;50.816;12.828;2022-11-20T08:01:10;97180.78;;;-6.57;100.00
30081;BME280;16902;50.816;12.828;2022-11-20T08:06:12;97183.59;;;-6.19;100.00
30081;BME280;16902;50.816;12.828;2022-11-20T08:11:14;97182.25;;;-5.96;100.00
30081;BME280;16902;50.816;12.828;2022-11-20T08:16:51;97178.91;;;-5.97;100.00
30081;BME280;16902;50.816;12.828;2022-11-20T08:21:52;97171.88;;;-5.64;100.00
30081;BME280;16902;50.816;12.828;2022-11-20T08:26:57;97167.88;;;-5.42;100.00
30081;BME280;16902;50.816;12.828;2022-11-20T08:31:59;97156.00;;;-5.14;100.00
30081;BME280;16902;50.816;12.828;2022-11-20T08:37:02;97153.41;;;-5.12;100.00
30081;BME280;16902;50.816;12.828;2022-11-20T08:42:07;97146.66;;;-5.26;100.00
30081;BME280;16902;50.816;12.828;2022-11-20T08:47:09;97146.72;;;-5.01;100.00
30081;BME280;16902;50.816;12.828;2022-11-20T08:52:10;97156.00;;;-4.61;100.00
30081;BME280;16902;50.816;12.828;2022-11-20T08:57:12;97156.41;;;-4.04;100.00
30081;BME280;16902;50.816;12.828;2022-11-20T09:02:14;97152.25;;;-3.68;100.00
30081;BME280;16902;50.816;12.828;2022-11-20T09:07:15;97153.47;;;-3.13;100.00
30081;BME280;16902;50.816;12.828;2022-11-20T09:12:17;97146.63;;;-2.89;100.00
30081;BME280;16902;50.816;12.828;2022-11-20T09:17:19;97143.47;;;-2.35;100.00
30081;BME280;16902;50.816;12.828;2022-11-20T09:22:21;97132.56;;;-1.81;100.00
30081;BME280;16902;50.816;12.828;2022-11-20T09:27:23;97120.06;;;-1.84;100.00
30081;BME280;16902;50.816;12.828;2022-11-20T09:32:25;97127.91;;;-1.64;100.00
30081;BME280;16902;50.816;12.828;2022-11-20T09:37:27;97130.34;;;-1.19;100.00
30081;BME280;16902;50.816;12.828;2022-11-20T09:58:41;97128.13;;;-1.24;100.00
30081;BME280;16902;50.816;12.828;2022-11-20T10:14:28;97126.00;;;-0.66;100.00
30081;BME280;16902;50.816;12.828;2022-11-20T10:30:20;97133.56;;;-0.85;100.00
30081;BME280;16902;50.816;12.828;2022-11-20T10:40:45;97117.41;;;-0.65;100.00
30081;BME280;16902;50.816;12.828;2022-11-20T10:45:58;97129.41;;;-0.35;100.00
30081;BME280;16902;50.816;12.828;2022-11-20T10:56:41;97109.16;;;-0.17;100.00
30081;BME280;16902;50.816;12.828;2022-11-20T11:01:50;97101.84;;;0.09;100.00
30081;BME280;16902;50.816;12.828;2022-11-20T11:06:55;97105.06;;;0.02;100.00
30081;BME280;16902;50.816;12.828;2022-11-20T11:12:00;97105.81;;;-0.17;100.00
30081;BME280;16902;50.816;12.828;2022-11-20T11:22:22;97092.31;;;-0.19;100.00
30081;BME280;16902;50.816;12.828;2022-11-20T11:27:23;97082.91;;;-0.19;100.00
30081;BME280;16902;50.816;12.828;2022-11-20T11:32:25;97076.16;;;-0.20;100.00
30081;BME280;16902;50.816;12.828;2022-11-20T11:37:36;97079.09;;;-0.24;100.00
30081;BME280;16902;50.816;12.828;2022-11-20T11:42:54;97074.16;;;-0.16;100.00
30081;BME280;16902;50.816;12.828;2022-11-20T11:47:58;97069.19;;;-0.18;100.00
30081;BME280;16902;50.816;12.828;2022-11-20T11:53:09;97066.56;;;-0.37;100.00
30081;BME280;16902;50.816;12.828;2022-11-20T12:03:39;97061.75;;;-0.21;100.00
30081;BME280;16902;50.816;12.828;2022-11-20T12:14:02;97055.94;;;-0.33;100.00
30081;BME280;16902;50.816;12.828;2022-11-20T12:19:13;97042.16;;;-0.41;100.00
30081;BME280;16902;50.816;12.828;2022-11-20T12:24:29;97042.19;;;-0.32;100.00
30081;BME280;16902;50.816;12.828;2022-11-20T12:41:09;97037.69;;;-0.49;100.00
30081;BME280;16902;50.816;12.828;2022-11-20T12:57:24;97033.78;;;-0.53;100.00
30081;BME280;16902;50.816;12.828;2022-11-20T13:07:40;97031.47;;;-0.56;100.00
30081;BME280;16902;50.816;12.828;2022-11-20T13:12:51;97030.22;;;-0.71;100.00
30081;BME280;16902;50.816;12.828;2022-11-20T13:18:01;97031.06;;;-0.61;100.00
30081;BME280;16902;50.816;12.828;2022-11-20T13:23:04;97025.47;;;-0.45;100.00
30081;BME280;16902;50.816;12.828;2022-11-20T13:33:36;97024.94;;;-0.39;100.00
30081;BME280;16902;50.816;12.828;2022-11-20T13:38:53;97034.41;;;-0.30;100.00
30081;BME280;16902;50.816;12.828;2022-11-20T13:44:05;97031.34;;;-0.24;100.00
30081;BME280;16902;50.816;12.828;2022-11-20T13:49:23;97032.16;;;-0.14;100.00
30081;BME280;16902;50.816;12.828;2022-11-20T14:00:14;97030.56;;;-0.05;100.00
30081;BME280;16902;50.816;12.828;2022-11-20T14:05:22;97029.88;;;-0.07;100.00
30081;BME280;16902;50.816;12.828;2022-11-20T14:10:27;97034.44;;;-0.11;100.00
30081;BME280;16902;50.816;12.828;2022-11-20T14:15:34;97035.25;;;-0.10;100.00
30081;BME280;16902;50.816;12.828;2022-11-20T14:20:40;97030.91;;;-0.19;100.00
30081;BME280;16902;50.816;12.828;2022-11-20T14:25:44;97030.41;;;-0.23;100.00
30081;BME280;16902;50.816;12.828;2022-11-20T14:30:47;97036.97;;;-0.20;100.00
30081;BME280;16902;50.816;12.828;2022-11-20T14:35:52;97031.72;;;-0.29;100.00
30081;BME280;16902;50.816;12.828;2022-11-20T14:41:15;97033.63;;;-0.61;100.00
30081;BME280;16902;50.816;12.828;2022-11-20T14:46:18;97027.91;;;-0.74;100.00
30081;BME280;16902;50.816;12.828;2022-11-20T14:51:39;97026.03;;;-0.93;100.00
30081;BME280;16902;50.816;12.828;2022-11-20T14:57:02;97028.09;;;-1.08;100.00
30081;BME280;16902;50.816;12.828;2022-11-20T15:02:08;97027.09;;;-1.17;100.00
30081;BME280;16902;50.816;12.828;2022-11-20T15:07:11;97023.81;;;-1.28;100.00
30081;BME280;16902;50.816;12.828;2022-11-20T15:12:17;97019.81;;;-1.42;100.00
30081;BME280;16902;50.816;12.828;2022-11-20T15:17:19;97029.16;;;-1.52;100.00
30081;BME280;16902;50.816;12.828;2022-11-20T15:22:21;97024.09;;;-1.64;100.00
30081;BME280;16902;50.816;12.828;2022-11-20T15:27:23;97022.00;;;-1.70;100.00
30081;BME280;16902;50.816;12.828;2022-11-20T15:32:24;97028.31;;;-1.74;100.00
30081;BME280;16902;50.816;12.828;2022-11-20T15:37:26;97024.28;;;-1.88;100.00
30081;BME280;16902;50.816;12.828;2022-11-20T15:42:30;97024.06;;;-1.96;100.00
30081;BME280;16902;50.816;12.828;2022-11-20T15:47:34;97029.22;;;-2.07;100.00
30081;BME280;16902;50.816;12.828;2022-11-20T15:52:36;97026.00;;;-2.43;100.00
30081;BME280;16902;50.816;12.828;2022-11-20T15:57:42;97015.09;;;-2.45;100.00
30081;BME280;16902;50.816;12.828;2022-11-20T16:02:44;97018.94;;;-2.39;100.00
30081;BME280;16902;50.816;12.828;2022-11-20T16:07:46;97013.38;;;-2.44;100.00
30081;BME280;16902;50.816;12.828;2022-11-20T16:12:48;97014.44;;;-2.69;100.00
30081;BME280;16902;50.816;12.828;2022-11-20T16:18:10;97021.69;;;-2.76;100.00
30081;BME280;16902;50.816;12.828;2022-11-20T16:23:13;97012.22;;;-2.74;100.00
30081;BME280;16902;50.816;12.828;2022-11-20T16:28:15;97016.28;;;-2.60;100.00
30081;BME280;16902;50.816;12.828;2022-11-20T16:33:19;97014.19;;;-2.55;100.00
30081;BME280;16902;50.816;12.828;2022-11-20T16:38:21;97011.97;;;-2.71;100.00
30081;BME280;16902;50.816;12.828;2022-11-20T16:43:23;97002.13;;;-2.87;100.00
30081;BME280;16902;50.816;12.828;2022-11-20T16:48:25;96999.59;;;-2.98;100.00
30081;BME280;16902;50.816;12.828;2022-11-20T16:53:27;96993.56;;;-2.97;100.00
30081;BME280;16902;50.816;12.828;2022-11-20T16:58:28;96998.53;;;-2.95;100.00
30081;BME280;16902;50.816;12.828;2022-11-20T17:03:30;97001.53;;;-2.90;100.00
30081;BME280;16902;50.816;12.828;2022-11-20T17:08:32;97003.28;;;-2.91;100.00
30081;BME280;16902;50.816;12.828;2022-11-20T17:13:35;96998.53;;;-2.95;100.00
30081;BME280;16902;50.816;12.828;2022-11-20T17:18:40;96981.75;;;-3.09;100.00
30081;BME280;16902;50.816;12.828;2022-11-20T17:23:43;96983.53;;;-3.45;100.00
30081;BME280;16902;50.816;12.828;2022-11-20T17:28:52;96981.63;;;-3.65;100.00
30081;BME280;16902;50.816;12.828;2022-11-20T17:33:54;96969.88;;;-3.90;100.00
30081;BME280;16902;50.816;12.828;2022-11-20T17:38:57;96979.38;;;-4.05;100.00
30081;BME280;16902;50.816;12.828;2022-11-20T17:44:00;96978.47;;;-4.04;100.00
30081;BME280;16902;50.816;12.828;2022-11-20T17:49:04;96980.50;;;-4.33;100.00
30081;BME280;16902;50.816;12.828;2022-11-20T17:54:06;96982.50;;;-4.49;100.00
30081;BME280;16902;50.816;12.828;2022-11-20T17:59:10;96987.06;;;-4.54;100.00
30081;BME280;16902;50.816;12.828;2022-11-20T18:04:12;96979.28;;;-4.64;100.00
30081;BME280;16902;50.816;12.828;2022-11-20T18:09:14;96978.97;;;-4.72;100.00
30081;BME280;16902;50.816;12.828;2022-11-20T18:14:16;96978.91;;;-4.83;100.00
30081;BME280;16902;50.816;12.828;2022-11-20T18:19:35;96968.41;;;-4.79;100.00
30081;BME280;16902;50.816;12.828;2022-11-20T18:24:45;96955.81;;;-4.80;100.00
30081;BME280;16902;50.816;12.828;2022-11-20T18:29:47;96948.94;;;-4.78;100.00
30081;BME280;16902;50.816;12.828;2022-11-20T18:34:52;96953.47;;;-4.71;100.00
30081;BME280;16902;50.816;12.828;2022-11-20T18:39:54;96933.06;;;-4.45;100.00
30081;BME280;16902;50.816;12.828;2022-11-20T18:44:57;96922.91;;;-4.21;100.00
30081;BME280;16902;50.816;12.828;2022-11-20T18:50:01;96917.81;;;-3.97;100.00
30081;BME280;16902;50.816;12.828;2022-11-20T18:55:04;96892.44;;;-3.86;100.00
30081;BME280;16902;50.816;12.828;2022-11-20T19:00:06;96905.25;;;-3.88;100.00
30081;BME280;16902;50.816;12.828;2022-11-20T19:05:12;96897.63;;;-3.88;100.00
30081;BME280;16902;50.816;12.828;2022-11-20T19:10:17;96890.84;;;-3.76;100.00
30081;BME280;16902;50.816;12.828;2022-11-20T19:15:20;96884.97;;;-3.76;100.00
30081;BME280;16902;50.816;12.828;2022-11-20T19:20:23;96880.28;;;-3.82;100.00
30081;BME280;16902;50.816;12.828;2022-11-20T19:25:25;96875.94;;;-3.69;100.00
30081;BME280;16902;50.816;12.828;2022-11-20T19:30:27;96869.13;;;-3.69;100.00
30081;BME280;16902;50.816;12.828;2022-11-20T19:35:29;96866.56;;;-3.69;100.00
30081;BME280;16902;50.816;12.828;2022-11-20T19:40:31;96850.16;;;-3.76;100.00
30081;BME280;16902;50.816;12.828;2022-11-20T19:45:33;96860.19;;;-3.85;100.00
30081;BME280;16902;50.816;12.828;2022-11-20T19:50:35;96862.16;;;-3.78;100.00
30081;BME280;16902;50.816;12.828;2022-11-20T19:55:36;96851.78;;;-3.64;100.00
30081;BME280;16902;50.816;12.828;2022-11-20T20:00:38;96856.44;;;-3.57;100.00
30081;BME280;16902;50.816;12.828;2022-11-20T20:05:40;96840.84;;;-3.53;100.00
30081;BME280;16902;50.816;12.828;2022-11-20T20:10:42;96832.25;;;-3.41;100.00
30081;BME280;16902;50.816;12.828;2022-11-20T20:15:44;96823.94;;;-3.43;100.00
30081;BME280;16902;50.816;12.828;2022-11-20T20:20:46;96811.44;;;-3.46;100.00
30081;BME280;16902;50.816;12.828;2022-11-20T20:25:47;96804.16;;;-3.39;100.00
30081;BME280;16902;50.816;12.828;2022-11-20T20:30:49;96789.09;;;-3.20;100.00
30081;BME280;16902;50.816;12.828;2022-11-20T20:35:52;96779.34;;;-3.03;100.00
30081;BME280;16902;50.816;12.828;2022-11-20T20:40:55;96781.72;;;-2.79;100.00
30081;BME280;16902;50.816;12.828;2022-11-20T20:45:57;96781.53;;;-2.67;100.00
30081;BME280;16902;50.816;12.828;2022-11-20T20:50:59;96774.53;;;-2.53;100.00
30081;BME280;16902;50.816;12.828;2022-11-20T20:56:03;96773.38;;;-2.49;100.00
30081;BME280;16902;50.816;12.828;2022-11-20T21:01:07;96759.31;;;-2.44;100.00
30081;BME280;16902;50.816;12.828;2022-11-20T21:06:10;96749.91;;;-2.32;100.00
30081;BME280;16902;50.816;12.828;2022-11-20T21:11:14;96740.25;;;-2.28;100.00
30081;BME280;16902;50.816;12.828;2022-11-20T21:16:17;96727.34;;;-2.37;100.00
30081;BME280;16902;50.816;12.828;2022-11-20T21:21:21;96714.97;;;-2.41;100.00
30081;BME280;16902;50.816;12.828;2022-11-20T21:26:41;96711.41;;;-2.29;100.00
30081;BME280;16902;50.816;12.828;2022-11-20T21:31:43;96703.13;;;-2.21;100.00
30081;BME280;16902;50.816;12.828;2022-11-20T21:36:46;96688.94;;;-2.14;100.00
30081;BME280;16902;50.816;12.828;2022-11-20T21:41:47;96681.22;;;-2.03;100.00
30081;BME280;16902;50.816;12.828;2022-11-20T21:46:49;96677.06;;;-1.94;100.00
30081;BME280;16902;50.816;12.828;2022-11-20T21:51:51;96660.84;;;-1.93;100.00
30081;BME280;16902;50.816;12.828;2022-11-20T21:56:54;96648.47;;;-1.98;100.00
30081;BME280;16902;50.816;12.828;2022-11-20T22:01:56;96646.75;;;-1.88;100.00
30081;BME280;16902;50.816;12.828;2022-11-20T22:06:57;96650.41;;;-1.81;100.00
30081;BME280;16902;50.816;12.828;2022-11-20T22:11:59;96638.19;;;-1.77;100.00
30081;BME280;16902;50.816;12.828;2022-11-20T22:17:01;96639.25;;;-1.79;100.00
30081;BME280;16902;50.816;12.828;2022-11-20T22:22:03;96627.28;;;-1.79;100.00
30081;BME280;16902;50.816;12.828;2022-11-20T22:27:05;96619.66;;;-1.79;100.00
30081;BME280;16902;50.816;12.828;2022-11-20T22:32:07;96608.25;;;-1.75;100.00
30081;BME280;16902;50.816;12.828;2022-11-20T22:37:10;96601.53;;;-1.76;100.00
30081;BME280;16902;50.816;12.828;2022-11-20T22:42:12;96593.50;;;-1.71;100.00
30081;BME280;16902;50.816;12.828;2022-11-20T22:47:14;96583.94;;;-1.69;100.00
30081;BME280;16902;50.816;12.828;2022-11-20T22:52:16;96581.28;;;-1.68;100.00
30081;BME280;16902;50.816;12.828;2022-11-20T22:57:18;96570.94;;;-1.66;100.00
30081;BME280;16902;50.816;12.828;2022-11-20T23:02:20;96572.28;;;-1.62;100.00
30081;BME280;16902;50.816;12.828;2022-11-20T23:07:21;96559.28;;;-1.59;100.00
30081;BME280;16902;50.816;12.828;2022-11-20T23:12:23;96554.28;;;-1.61;100.00
30081;BME280;16902;50.816;12.828;2022-11-20T23:17:25;96544.63;;;-1.67;100.00
30081;BME280;16902;50.816;12.828;2022-11-20T23:22:27;96534.41;;;-1.67;100.00
30081;BME280;16902;50.816;12.828;2022-11-20T23:27:29;96541.00;;;-1.54;100.00
30081;BME280;16902;50.816;12.828;2022-11-20T23:32:30;96518.44;;;-1.49;100.00
30081;BME280;16902;50.816;12.828;2022-11-20T23:37:32;96508.06;;;-1.38;100.00
30081;BME280;16902;50.816;12.828;2022-11-20T23:42:34;96510.63;;;-1.28;100.00
30081;BME280;16902;50.816;12.828;2022-11-20T23:47:36;96493.41;;;-1.26;100.00
30081;BME280;16902;50.816;12.828;2022-11-20T23:52:37;96497.06;;;-1.29;100.00
30081;BME280;16902;50.816;12.828;2022-11-20T23:57:39;96487.50;;;-1.27;100.00
